Time;durP1;ratioP1;P1;durP2;ratioP2;P2;SDS_P1;SDS_P2;PMS_P1;PMS_P2;Temp;Humidity;BMP_temperature;BMP_pressure;BME280_temperature;BME280_humidity;BME280_pressure;Samples;Min_cycle;Max_cycle;Signal;HPM_P1;HPM_P2
2022/01/22 00:00:16;;;;;;;2.60;2.50;;;;;;;-1.86;100.00;100558.63;5092669;28;20664;-75
2022/01/22 00:02:43;;;;;;;2.13;2.03;;;;;;;-1.94;100.00;100556.28;5074277;28;20186;-73
2022/01/22 00:05:12;;;;;;;3.07;2.77;;;;;;;-1.97;100.00;100554.41;5091627;28;20193;-73
2022/01/22 00:07:39;;;;;;;2.43;2.27;;;;;;;-1.97;100.00;100563.69;5079470;28;20218;-73
2022/01/22 00:10:14;;;;;;;5.10;2.20;;;;;;;-2.17;100.00;100519.97;5077271;28;20186;-74
2022/01/22 00:13:06;;;;;;;4.00;2.70;;;;;;;-2.06;100.00;100548.66;5092895;28;20254;-74
2022/01/22 00:15:34;;;;;;;6.20;4.07;;;;;;;-2.10;100.00;100551.75;5085779;28;20277;-74
2022/01/22 00:18:01;;;;;;;2.97;2.70;;;;;;;-1.99;100.00;100561.03;5087067;28;21071;-74
2022/01/22 00:20:28;;;;;;;2.23;2.07;;;;;;;-1.98;100.00;100562.81;5090385;28;20224;-73
2022/01/22 00:22:55;;;;;;;4.83;3.53;;;;;;;-2.19;100.00;100546.03;5092747;28;20214;-75
2022/01/22 00:25:24;;;;;;;5.17;3.17;;;;;;;-2.08;100.00;100542.59;5083791;28;20211;-73
2022/01/22 00:27:52;;;;;;;10.87;6.63;;;;;;;-1.95;100.00;100540.16;5087229;28;20233;-74
2022/01/22 00:30:21;;;;;;;6.83;5.10;;;;;;;-2.10;100.00;100532.31;5092901;28;20195;-73
2022/01/22 00:32:48;;;;;;;11.33;6.90;;;;;;;-2.63;100.00;100444.69;5087056;28;20190;-73
2022/01/22 00:35:16;;;;;;;4.97;4.47;;;;;;;-2.05;100.00;100536.09;5072475;28;20187;-73
2022/01/22 00:37:47;;;;;;;9.43;4.23;;;;;;;-2.28;100.00;100536.06;5071850;28;20195;-73
2022/01/22 00:40:14;;;;;;;12.67;8.00;;;;;;;-2.27;100.00;100526.81;5072217;28;20195;-73
2022/01/22 00:42:44;;;;;;;8.90;5.13;;;;;;;-2.26;100.00;100523.50;5077008;28;20190;-73
2022/01/22 00:45:11;;;;;;;3.13;2.93;;;;;;;-2.20;100.00;100519.75;5092676;28;20205;-73
2022/01/22 00:47:39;;;;;;;10.07;5.63;;;;;;;-2.11;100.00;100517.00;5082421;28;20599;-73
2022/01/22 00:50:08;;;;;;;8.80;3.80;;;;;;;-2.08;100.00;100510.47;5077878;28;20206;-74
2022/01/22 00:52:35;;;;;;;7.93;3.60;;;;;;;-2.21;100.00;100512.03;5072515;28;20673;-74
2022/01/22 00:55:01;;;;;;;2.47;2.37;;;;;;;-2.15;100.00;100512.47;5089624;28;20190;-74
2022/01/22 00:57:28;;;;;;;3.67;2.03;;;;;;;-2.22;100.00;100495.91;5072983;28;20187;-73
2022/01/22 00:59:57;;;;;;;6.63;3.60;;;;;;;-2.15;100.00;100522.63;5087122;28;20239;-73
2022/01/22 01:02:24;;;;;;;5.33;3.47;;;;;;;-2.16;100.00;100529.34;5088487;28;20241;-73
2022/01/22 01:04:51;;;;;;;5.37;3.07;;;;;;;-2.31;100.00;100517.19;5092223;28;20194;-73
2022/01/22 01:07:18;;;;;;;3.50;2.73;;;;;;;-2.22;100.00;100507.72;5091919;28;20214;-74
2022/01/22 01:09:45;;;;;;;4.90;2.60;;;;;;;-2.31;100.00;100507.94;5079861;28;20199;-73
2022/01/22 01:12:12;;;;;;;10.70;3.03;;;;;;;-2.30;100.00;100506.28;5071983;28;20194;-74
2022/01/22 01:14:45;;;;;;;9.47;3.40;;;;;;;-2.70;100.00;100478.00;5072873;28;20666;-73
2022/01/22 01:17:45;;;;;;;2.60;2.37;;;;;;;-2.55;100.00;100489.28;5072666;28;20660;-73
2022/01/22 01:33:58;;;;;;;3.97;3.60;;;;;;;-2.45;100.00;100444.25;5072680;28;20198;-73
2022/01/22 01:36:25;;;;;;;7.13;3.43;;;;;;;-2.33;100.00;100455.28;5071838;28;20194;-74
2022/01/22 01:38:56;;;;;;;12.70;2.33;;;;;;;-2.67;100.00;100389.41;5071532;28;20198;-73
2022/01/22 01:41:30;;;;;;;2.90;2.20;;;;;;;-2.34;100.00;100453.50;5071921;28;20198;-74
2022/01/22 01:43:56;;;;;;;2.93;2.73;;;;;;;-2.19;100.00;100457.16;5084366;28;20220;-73
2022/01/22 01:46:25;;;;;;;4.20;3.13;;;;;;;-2.15;100.00;100461.66;5091525;28;20198;-73
2022/01/22 01:48:53;;;;;;;6.30;3.37;;;;;;;-2.26;100.00;100457.47;5082962;28;20337;-74
2022/01/22 01:51:23;;;;;;;3.93;2.17;;;;;;;-2.23;100.00;100457.69;5076007;28;20189;-74
2022/01/22 01:53:57;;;;;;;2.03;1.97;;;;;;;-2.38;100.00;100431.22;5087403;28;20244;-74
2022/01/22 01:59:10;;;;;;;5.23;3.37;;;;;;;-2.69;100.00;100370.66;5091484;28;20585;-74
2022/01/22 02:01:36;;;;;;;10.23;3.60;;;;;;;-2.16;100.00;100462.44;5086923;28;20191;-74
2022/01/22 02:04:08;;;;;;;8.03;3.03;;;;;;;-2.33;100.00;100461.25;5088539;28;20201;-73
2022/01/22 02:06:35;;;;;;;2.87;2.63;;;;;;;-2.35;100.00;100462.78;5094208;28;20285;-73
2022/01/22 02:09:02;;;;;;;6.13;3.23;;;;;;;-2.21;100.00;100456.16;5088570;28;20232;-73
2022/01/22 02:11:29;;;;;;;6.87;3.53;;;;;;;-2.27;100.00;100426.13;5093447;28;20588;-73
2022/01/22 02:14:06;;;;;;;2.67;2.30;;;;;;;-2.23;100.00;100445.00;5090217;28;20700;-73
2022/01/22 02:24:53;;;;;;;2.43;2.23;;;;;;;-2.28;100.00;100429.44;5057982;28;20701;-74
2022/01/22 02:27:20;;;;;;;7.27;3.77;;;;;;;-2.25;100.00;100436.41;5093913;28;20218;-73
2022/01/22 02:29:48;;;;;;;4.87;3.10;;;;;;;-2.20;100.00;100428.31;5092633;28;20194;-73
2022/01/22 02:32:55;;;;;;;2.17;2.00;;;;;;;-2.19;100.00;100434.28;5092446;28;20197;-73
2022/01/22 02:35:27;;;;;;;2.27;2.10;;;;;;;-2.19;100.00;100435.19;5074981;28;20232;-73
2022/01/22 02:38:00;;;;;;;3.80;2.57;;;;;;;-2.21;100.00;100425.69;5074789;28;20293;-73
2022/01/22 02:40:29;;;;;;;3.57;2.77;;;;;;;-2.16;100.00;100431.97;5085839;28;20243;-73
2022/01/22 02:42:58;;;;;;;7.73;2.90;;;;;;;-2.20;100.00;100427.44;5091588;28;20974;-73
2022/01/22 02:45:25;;;;;;;2.43;2.23;;;;;;;-2.26;100.00;100422.81;5074322;28;20198;-74
2022/01/22 02:47:53;;;;;;;3.40;3.13;;;;;;;-2.36;100.00;100427.13;5074784;28;20713;-74
2022/01/22 02:50:20;;;;;;;3.60;1.93;;;;;;;-2.30;100.00;100432.66;5085892;28;20253;-74
2022/01/22 02:52:48;;;;;;;2.57;1.97;;;;;;;-2.38;100.00;100441.38;5093071;28;20212;-74
2022/01/22 02:55:17;;;;;;;7.63;2.97;;;;;;;-2.29;100.00;100431.88;5086265;28;20194;-74
2022/01/22 02:57:45;;;;;;;4.20;2.40;;;;;;;-2.38;100.00;100443.91;5092312;28;20580;-74
2022/01/22 03:00:16;;;;;;;3.40;2.43;;;;;;;-2.30;100.00;100445.34;5082732;28;20234;-74
2022/01/22 03:02:43;;;;;;;9.40;4.33;;;;;;;-2.34;100.00;100438.28;5073772;28;20191;-74
2022/01/22 03:05:11;;;;;;;4.10;3.37;;;;;;;-2.28;100.00;100441.28;5094164;28;20202;-73
2022/01/22 03:07:39;;;;;;;6.53;3.10;;;;;;;-2.49;100.00;100389.84;5078925;28;20201;-75
2022/01/22 03:10:08;;;;;;;3.77;2.60;;;;;;;-2.26;100.00;100427.00;5074183;28;20206;-73
2022/01/22 03:18:09;;;;;;;3.23;3.03;;;;;;;-2.43;100.00;100418.22;5084941;28;20313;-74
2022/01/22 03:20:46;;;;;;;5.93;3.07;;;;;;;-2.50;100.00;100426.16;5094395;28;20201;-74
2022/01/22 03:27:19;;;;;;;2.97;2.77;;;;;;;-2.45;100.00;100414.66;5089537;28;20654;-73
2022/01/22 03:28:57;;;;;;;3.70;2.80;;;;;;;-2.30;100.00;100418.28;5080090;28;20221;-73
2022/01/22 03:31:24;;;;;;;2.53;2.43;;;;;;;-2.34;100.00;100392.56;5073884;28;20226;-75
2022/01/22 03:33:51;;;;;;;12.07;3.63;;;;;;;-2.26;100.00;100411.78;5082786;28;20186;-74
2022/01/22 03:36:19;;;;;;;7.17;3.57;;;;;;;-2.35;100.00;100389.16;5093788;28;20203;-74
2022/01/22 03:38:46;;;;;;;7.30;2.97;;;;;;;-2.27;100.00;100407.47;5078829;28;20256;-74
2022/01/22 03:41:13;;;;;;;5.80;3.30;;;;;;;-2.25;100.00;100413.56;5089715;28;20183;-75
2022/01/22 03:43:40;;;;;;;3.53;2.77;;;;;;;-2.38;100.00;100406.72;5074992;28;20198;-73
2022/01/22 03:46:09;;;;;;;4.57;2.93;;;;;;;-2.16;100.00;100399.84;5093818;28;20554;-73
2022/01/22 03:48:36;;;;;;;3.17;2.80;;;;;;;-2.10;100.00;100397.72;5087688;28;20226;-72
2022/01/22 03:51:02;;;;;;;3.30;3.00;;;;;;;-2.14;100.00;100392.34;5074267;28;20202;-72
2022/01/22 03:53:29;;;;;;;10.90;3.80;;;;;;;-2.39;100.00;100373.63;5078914;28;20198;-73
2022/01/22 03:56:02;;;;;;;7.80;3.50;;;;;;;-2.18;100.00;100385.28;5091331;28;20190;-73
2022/01/22 03:58:30;;;;;;;2.70;2.50;;;;;;;-2.16;100.00;100389.66;5077446;28;20206;-75
2022/01/22 04:01:20;;;;;;;4.33;3.27;;;;;;;-2.15;100.00;100395.63;5081279;28;20195;-73
2022/01/22 04:03:56;;;;;;;9.23;3.63;;;;;;;-2.26;100.00;100394.00;5075363;28;20209;-74
2022/01/22 04:07:09;;;;;;;7.87;3.50;;;;;;;-2.27;100.00;100384.63;5073816;28;20216;-73
2022/01/22 04:09:39;;;;;;;40.47;10.50;;;;;;;-2.40;100.00;100351.53;5072574;28;20221;-73
2022/01/22 04:12:07;;;;;;;2.90;2.70;;;;;;;-2.18;100.00;100400.50;5073396;28;20198;-74
2022/01/22 04:14:36;;;;;;;5.80;3.53;;;;;;;-2.09;100.00;100398.59;5087074;28;20213;-74
2022/01/22 04:17:17;;;;;;;6.77;4.23;;;;;;;-2.16;100.00;100404.03;5092750;28;20416;-73
2022/01/22 04:25:28;;;;;;;10.50;4.27;;;;;;;-2.29;100.00;100381.09;5031205;28;20322;-74
2022/01/22 04:27:56;;;;;;;3.60;2.27;;;;;;;-2.17;100.00;100394.63;5064103;28;20217;-74
2022/01/22 04:30:24;;;;;;;2.90;2.50;;;;;;;-2.12;100.00;100388.22;5091196;28;20708;-73
2022/01/22 04:32:52;;;;;;;3.13;2.80;;;;;;;-2.17;100.00;100387.00;5092231;28;20190;-73
2022/01/22 04:35:22;;;;;;;5.40;3.47;;;;;;;-2.40;100.00;100389.63;5089400;28;20198;-73
2022/01/22 04:37:50;;;;;;;7.30;3.13;;;;;;;-2.33;100.00;100389.28;5092159;28;20283;-72
2022/01/22 04:40:17;;;;;;;3.43;3.23;;;;;;;-2.39;100.00;100388.84;5090681;28;20202;-73
2022/01/22 04:42:45;;;;;;;6.47;3.87;;;;;;;-2.47;100.00;100384.88;5074675;28;20186;-75
2022/01/22 04:45:19;;;;;;;13.47;5.87;;;;;;;-2.31;100.00;100377.56;5091974;28;20201;-73
2022/01/22 04:47:54;;;;;;;15.17;6.20;;;;;;;-2.39;100.00;100351.63;5089884;28;20247;-73
2022/01/22 04:55:50;;;;;;;8.47;4.47;;;;;;;-2.30;100.00;100374.25;5092151;28;20205;-74
2022/01/22 04:58:17;;;;;;;22.83;4.70;;;;;;;-2.20;100.00;100381.72;5092107;28;20668;-73
2022/01/22 05:00:45;;;;;;;18.63;6.30;;;;;;;-2.27;100.00;100367.72;5079775;28;20201;-73
2022/01/22 05:03:15;;;;;;;7.00;4.10;;;;;;;-2.44;100.00;100334.31;5089219;28;20728;-73
2022/01/22 05:05:44;;;;;;;3.13;2.93;;;;;;;-2.23;100.00;100379.88;5072276;28;20202;-73
2022/01/22 05:08:11;;;;;;;5.40;3.23;;;;;;;-2.12;100.00;100375.53;5071585;28;20195;-73
2022/01/22 05:10:38;;;;;;;6.23;3.40;;;;;;;-2.20;100.00;100371.56;5073012;28;20203;-73
2022/01/22 05:13:04;;;;;;;3.13;2.93;;;;;;;-2.19;100.00;100383.50;5072609;28;20195;-73
2022/01/22 05:15:31;;;;;;;3.03;2.83;;;;;;;-2.09;100.00;100393.50;5092282;28;20660;-72
2022/01/22 05:17:58;;;;;;;3.13;2.90;;;;;;;-2.16;100.00;100389.66;5088463;28;20210;-73
2022/01/22 05:20:29;;;;;;;6.67;3.77;;;;;;;-2.18;100.00;100380.19;5072624;28;20191;-72
2022/01/22 05:23:02;;;;;;;7.30;3.50;;;;;;;-2.06;100.00;100386.09;5078282;28;20193;-73
2022/01/22 05:25:34;;;;;;;7.47;5.60;;;;;;;-2.12;100.00;100375.53;5091597;28;20201;-73
2022/01/22 05:39:08;;;;;;;11.07;6.20;;;;;;;-2.21;100.00;100359.66;5072185;28;20202;-72
2022/01/22 05:41:35;;;;;;;11.07;7.80;;;;;;;-2.17;100.00;100376.84;5086278;28;20202;-73
2022/01/22 05:44:02;;;;;;;3.33;3.10;;;;;;;-2.11;100.00;100368.03;5085068;28;20194;-73
2022/01/22 05:46:28;;;;;;;8.67;6.63;;;;;;;-2.05;100.00;100373.53;5080121;28;20202;-73
2022/01/22 05:48:55;;;;;;;5.70;3.83;;;;;;;-2.09;100.00;100365.56;5068577;28;20222;-73
2022/01/22 05:51:22;;;;;;;7.83;3.27;;;;;;;-2.16;100.00;100361.75;5069834;28;20195;-72
2022/01/22 05:54:12;;;;;;;14.37;6.13;;;;;;;-2.25;100.00;100367.84;5068895;28;20198;-72
2022/01/22 05:59:39;;;;;;;3.03;2.67;;;;;;;-2.14;100.00;100362.72;5077506;28;20219;-73
2022/01/22 06:02:07;;;;;;;6.57;4.23;;;;;;;-2.05;100.00;100377.72;5080958;28;20203;-74
2022/01/22 06:04:34;;;;;;;9.17;4.23;;;;;;;-2.06;100.00;100374.28;5080023;28;20198;-76
2022/01/22 06:07:02;;;;;;;9.23;4.73;;;;;;;-1.99;100.00;100385.75;5080832;28;20191;-76
2022/01/22 06:09:31;;;;;;;9.93;5.97;;;;;;;-2.24;100.00;100360.31;5077017;28;20724;-74
2022/01/22 06:12:15;;;;;;;9.67;5.07;;;;;;;-1.94;100.00;100407.28;5080943;28;20746;-74
2022/01/22 06:14:42;;;;;;;7.90;4.63;;;;;;;-1.88;100.00;100395.00;5069197;28;20205;-77
2022/01/22 06:17:09;;;;;;;11.10;5.20;;;;;;;-1.91;100.00;100387.16;5075201;28;20222;-79
2022/01/22 06:19:35;;;;;;;7.80;4.73;;;;;;;-3.41;100.00;100124.56;5091630;28;20206;-79
2022/01/22 06:22:02;;;;;;;14.80;4.33;;;;;;;-1.68;100.00;100376.94;5092022;28;20198;-76
2022/01/22 06:24:29;;;;;;;8.13;4.97;;;;;;;-1.69;100.00;100380.22;5091347;28;20194;-76
2022/01/22 06:26:56;;;;;;;9.07;4.20;;;;;;;-1.83;100.00;100342.84;5098204;28;20222;-78
2022/01/22 06:29:24;;;;;;;5.33;3.17;;;;;;;-2.50;100.00;100234.13;5095715;28;20233;-80
2022/01/22 06:31:51;;;;;;;5.40;4.17;;;;;;;-1.72;100.00;100369.88;5096980;28;20213;-80
2022/01/22 06:34:18;;;;;;;9.33;4.00;;;;;;;-1.77;100.00;100355.94;5092243;28;20197;-80
2022/01/22 06:36:44;;;;;;;39.67;19.77;;;;;;;-1.83;100.00;100358.09;5095419;28;20202;-76
2022/01/22 06:39:13;;;;;;;6.80;4.43;;;;;;;-2.26;100.00;100294.97;5099030;28;20202;-79
2022/01/22 06:41:46;;;;;;;7.67;3.63;;;;;;;-1.70;100.00;100368.28;5097575;28;20182;-76
2022/01/22 06:44:15;;;;;;;10.57;5.80;;;;;;;-1.33;100.00;100374.19;5076706;28;20661;-75
2022/01/22 06:46:44;;;;;;;8.87;4.23;;;;;;;-2.14;100.00;100239.97;5076275;28;20252;-77
2022/01/22 06:49:12;;;;;;;10.37;5.03;;;;;;;-1.39;100.00;100381.38;5073887;28;20230;-78
2022/01/22 06:51:38;;;;;;;3.60;2.73;;;;;;;-1.54;100.00;100398.19;5082771;28;20190;-80
2022/01/22 06:54:07;;;;;;;6.50;4.43;;;;;;;-2.11;100.00;100318.88;5089047;28;20704;-78
2022/01/22 06:56:34;;;;;;;7.80;3.67;;;;;;;-1.67;100.00;100388.84;5090250;28;20207;-79
2022/01/22 06:59:02;;;;;;;6.27;4.57;;;;;;;-1.59;100.00;100387.69;5089328;28;20206;-79
2022/01/22 07:01:29;;;;;;;4.90;3.70;;;;;;;-3.13;100.00;100129.13;5086763;28;20194;-79
2022/01/22 07:03:58;;;;;;;4.97;3.77;;;;;;;-2.58;100.00;100204.84;5086670;28;20207;-81
2022/01/22 07:06:25;;;;;;;11.40;4.73;;;;;;;-1.63;100.00;100362.84;5099750;28;20208;-78
2022/01/22 07:08:52;;;;;;;5.03;4.53;;;;;;;-1.61;100.00;100389.25;5101503;28;20198;-78
2022/01/22 07:11:19;;;;;;;4.93;3.70;;;;;;;-1.45;100.00;100393.69;5091847;28;20191;-82
2022/01/22 07:13:47;;;;;;;13.97;6.83;;;;;;;-1.95;100.00;100303.91;5099492;28;20209;-81
2022/01/22 07:16:14;;;;;;;5.00;4.20;;;;;;;-1.98;100.00;100272.31;5093773;28;20209;-77
2022/01/22 07:18:42;;;;;;;6.83;5.13;;;;;;;-2.01;100.00;100314.53;5093562;28;20222;-79
2022/01/22 07:21:15;;;;;;;13.80;6.27;;;;;;;-1.55;100.00;100346.47;5099182;28;20261;-79
2022/01/22 07:24:22;;;;;;;12.63;6.77;;;;;;;-1.14;100.00;100387.31;5082483;28;20206;-81
2022/01/22 07:26:40;;;;;;;39.67;16.00;;;;;;;-1.16;100.00;100393.97;5090116;28;20312;-78
2022/01/22 07:29:07;;;;;;;6.00;4.20;;;;;;;-1.14;100.00;100384.78;5087034;28;20222;-81
2022/01/22 07:31:34;;;;;;;15.33;6.80;;;;;;;-1.25;100.00;100379.78;5082606;28;20190;-78
2022/01/22 07:34:00;;;;;;;16.13;7.67;;;;;;;-1.15;100.00;100382.13;5095424;28;20587;-79
2022/01/22 07:36:29;;;;;;;33.07;13.00;;;;;;;-1.73;100.00;100286.78;5096064;28;20206;-78
2022/01/22 07:38:55;;;;;;;13.27;6.33;;;;;;;-1.46;100.00;100333.44;5093990;28;20630;-79
2022/01/22 07:41:22;;;;;;;7.53;3.73;;;;;;;-1.04;100.00;100382.06;5093970;28;20237;-79
2022/01/22 07:43:49;;;;;;;6.73;4.77;;;;;;;-1.03;100.00;100372.75;5076038;28;20206;-77
2022/01/22 07:46:16;;;;;;;10.27;5.27;;;;;;;-2.17;100.00;100177.13;5082288;28;20206;-80
2022/01/22 07:48:43;;;;;;;8.23;6.40;;;;;;;-0.90;100.00;100372.78;5079084;28;20290;-81
2022/01/22 07:51:10;;;;;;;15.47;7.07;;;;;;;-0.93;100.00;100370.03;5083697;28;20224;-80
2022/01/22 07:53:38;;;;;;;10.53;7.23;;;;;;;-0.98;100.00;100361.22;5079205;28;20214;-79
2022/01/22 07:56:05;;;;;;;9.10;4.43;;;;;;;-0.91;100.00;100362.50;5081311;28;20194;-80
2022/01/22 07:58:32;;;;;;;6.73;4.90;;;;;;;-1.01;100.00;100361.91;5075433;28;20214;-79
2022/01/22 08:00:59;;;;;;;15.20;5.37;;;;;;;-0.93;100.00;100354.78;5074866;28;20207;-77
2022/01/22 08:03:27;;;;;;;9.27;4.87;;;;;;;-1.22;100.00;100324.03;5076672;28;20217;-78
2022/01/22 08:05:54;;;;;;;14.30;5.17;;;;;;;-1.10;100.00;100363.84;5075563;28;20577;-78
2022/01/22 08:08:21;;;;;;;13.63;7.00;;;;;;;-1.08;100.00;100351.22;5075959;28;20197;-78
2022/01/22 08:10:49;;;;;;;12.17;5.20;;;;;;;-0.99;100.00;100362.00;5077393;28;20607;-78
2022/01/22 08:13:18;;;;;;;13.43;7.23;;;;;;;-1.51;100.00;100273.81;5076114;28;20210;-78
2022/01/22 08:15:45;;;;;;;6.30;3.97;;;;;;;-0.99;100.00;100354.34;5074817;28;20191;-78
2022/01/22 08:18:12;;;;;;;17.63;6.43;;;;;;;-0.91;100.00;100354.84;5076398;28;20214;-78
2022/01/22 08:20:39;;;;;;;11.10;5.67;;;;;;;-0.75;100.00;100355.91;5076673;28;20222;-78
2022/01/22 08:23:06;;;;;;;15.37;5.83;;;;;;;-0.74;100.00;100364.44;5073759;28;20206;-79
2022/01/22 08:25:33;;;;;;;34.30;14.67;;;;;;;-0.45;100.00;100371.38;5091010;28;20204;-74
2022/01/22 08:30:46;;;;;;;11.53;5.17;;;;;;;-0.31;100.00;100329.81;5072086;28;20635;-76
2022/01/22 08:33:34;;;;;;;10.17;4.20;;;;;;;-0.52;100.00;100302.25;5083248;28;20202;-76
2022/01/22 08:36:02;;;;;;;8.17;5.43;;;;;;;-0.10;100.00;100347.28;5093392;28;20194;-77
2022/01/22 08:38:31;;;;;;;7.50;3.67;;;;;;;-0.50;100.00;100282.84;5079727;28;20199;-75
2022/01/22 08:40:58;;;;;;;13.07;6.90;;;;;;;-0.62;100.00;100261.75;5076881;28;20195;-77
2022/01/22 08:43:27;;;;;;;8.50;4.70;;;;;;;-0.20;100.00;100354.28;5075150;28;20680;-76
2022/01/22 08:45:55;;;;;;;3.23;2.93;;;;;;;-0.25;100.00;100345.50;5073611;28;20197;-78
2022/01/22 08:48:22;;;;;;;6.30;4.63;;;;;;;-0.25;100.00;100337.84;5072695;28;20201;-79
2022/01/22 08:50:50;;;;;;;8.20;3.83;;;;;;;-0.13;100.00;100333.50;5091386;28;20226;-75
2022/01/22 08:53:16;;;;;;;10.93;5.03;;;;;;;-0.40;100.00;100242.69;5088611;28;20199;-76
2022/01/22 08:55:43;;;;;;;3.67;3.30;;;;;;;0.14;100.00;100340.28;5075909;28;20206;-77
2022/01/22 08:58:10;;;;;;;9.57;4.07;;;;;;;0.05;100.00;100331.19;5072365;28;20198;-75
2022/01/22 09:00:39;;;;;;;7.90;5.07;;;;;;;-0.15;100.00;100299.41;5074942;28;20298;-76
2022/01/22 09:03:06;;;;;;;6.60;3.83;;;;;;;-0.03;100.00;100323.06;5087906;28;20271;-77
2022/01/22 09:05:35;;;;;;;8.13;5.40;;;;;;;0.20;100.00;100312.59;5092991;28;20190;-78
2022/01/22 09:08:03;;;;;;;9.47;4.27;;;;;;;0.07;100.00;100327.06;5091754;28;20623;-76
2022/01/22 09:10:30;;;;;;;6.23;4.20;;;;;;;0.10;100.00;100317.06;5091246;28;20609;-76
2022/01/22 09:12:57;;;;;;;10.30;6.03;;;;;;;0.03;100.00;100281.78;5073258;28;20195;-75
2022/01/22 09:15:24;;;;;;;7.73;4.43;;;;;;;0.23;100.00;100314.44;5074139;28;20204;-75
2022/01/22 09:17:52;;;;;;;10.23;4.80;;;;;;;-0.43;100.00;100223.00;5077476;28;20218;-80
2022/01/22 09:20:32;;;;;;;13.83;7.83;;;;;;;0.33;100.00;100315.06;5070716;28;20199;-76
2022/01/22 09:22:59;;;;;;;6.90;4.70;;;;;;;0.41;100.00;100320.63;5090497;28;20197;-77
2022/01/22 09:25:26;;;;;;;13.43;6.40;;;;;;;0.43;100.00;100307.16;5091953;28;20210;-77
2022/01/22 09:27:53;;;;;;;9.90;5.30;;;;;;;0.53;100.00;100297.50;5089861;28;20245;-77
2022/01/22 09:30:21;;;;;;;22.67;9.40;;;;;;;0.74;100.00;100294.50;5070706;28;20226;-71
2022/01/22 09:32:48;;;;;;;22.90;10.10;;;;;;;0.87;100.00;100266.34;5071490;28;20220;-74
2022/01/22 09:35:16;;;;;;;26.53;7.17;;;;;;;1.13;99.80;100283.09;5080346;28;20190;-75
2022/01/22 09:37:43;;;;;;;10.27;5.67;;;;;;;0.37;99.63;100186.97;5077548;28;20217;-74
2022/01/22 09:40:12;;;;;;;26.57;12.53;;;;;;;0.64;99.91;100246.31;5078054;28;20193;-75
2022/01/22 09:42:40;;;;;;;19.33;8.43;;;;;;;0.90;100.00;100278.38;5091483;28;20198;-77
2022/01/22 09:45:08;;;;;;;35.17;15.73;;;;;;;1.00;97.70;100275.53;5091533;28;20186;-76
2022/01/22 09:47:35;;;;;;;18.30;8.83;;;;;;;0.96;97.29;100260.88;5075858;28;20198;-75
2022/01/22 09:50:04;;;;;;;23.77;10.40;;;;;;;0.82;96.72;100241.38;5069737;28;20658;-74
2022/01/22 09:52:32;;;;;;;18.53;8.50;;;;;;;1.07;96.99;100258.91;5070945;28;20207;-76
2022/01/22 09:54:59;;;;;;;16.27;7.43;;;;;;;0.87;95.65;100260.34;5084005;28;20691;-74
2022/01/22 09:57:26;;;;;;;11.03;6.63;;;;;;;0.75;94.69;100208.66;5091220;28;20200;-76
2022/01/22 09:59:53;;;;;;;7.33;6.03;;;;;;;0.96;91.72;100214.94;5078518;28;20218;-78
2022/01/22 10:02:23;;;;;;;187.53;55.50;;;;;;;1.33;90.94;100253.53;5071192;28;20209;-75
2022/01/22 10:04:52;;;;;;;9.33;5.83;;;;;;;1.45;88.32;100267.84;5071666;28;20195;-77
2022/01/22 10:07:21;;;;;;;22.63;8.53;;;;;;;1.18;86.43;100212.72;5071091;28;20276;-77
2022/01/22 10:10:00;;;;;;;21.67;9.23;;;;;;;1.46;86.88;100248.31;5070768;28;20191;-77
2022/01/22 10:12:29;;;;;;;15.47;8.77;;;;;;;1.10;86.15;100183.38;5088759;28;20233;-79
2022/01/22 10:15:05;;;;;;;8.03;4.97;;;;;;;1.07;83.99;100188.28;5095373;28;20247;-77
2022/01/22 10:17:44;;;;;;;5.67;3.17;;;;;;;1.11;83.81;100220.84;5085240;28;20229;-77
2022/01/22 10:20:36;;;;;;;8.13;4.93;;;;;;;1.23;84.26;100212.97;5075878;28;20206;-77
2022/01/22 10:23:06;;;;;;;12.07;5.50;;;;;;;1.57;84.24;100234.41;5093246;28;20201;-81
2022/01/22 10:25:40;;;;;;;10.87;6.03;;;;;;;0.85;83.84;100073.09;5075777;28;20206;-79
2022/01/22 10:28:10;;;;;;;11.17;4.90;;;;;;;1.39;82.61;100151.72;5077187;28;20242;-78
2022/01/22 10:30:40;;;;;;;8.97;5.37;;;;;;;1.84;81.60;100224.75;5075449;28;20316;-76
2022/01/22 10:33:27;;;;;;;11.93;5.70;;;;;;;1.70;78.99;100197.59;5078321;28;20221;-75
2022/01/22 10:35:56;;;;;;;6.83;4.70;;;;;;;1.66;77.53;100218.69;5081221;28;20198;-75
2022/01/22 10:38:23;;;;;;;16.80;7.17;;;;;;;1.91;77.34;100216.59;5083776;28;20294;-73
2022/01/22 10:40:57;;;;;;;2.47;2.27;;;;;;;1.96;76.51;100207.50;5074824;28;20199;-73
2022/01/22 10:43:29;;;;;;;8.47;4.37;;;;;;;2.12;76.09;100207.44;5087527;28;20190;-75
2022/01/22 10:46:10;;;;;;;7.03;4.60;;;;;;;2.03;77.16;100209.56;5075337;28;20203;-81
2022/01/22 10:48:39;;;;;;;2.67;2.47;;;;;;;2.12;77.98;100199.78;5074633;28;20198;-75
2022/01/22 10:51:08;;;;;;;10.97;4.97;;;;;;;2.21;75.83;100176.34;5073696;28;20230;-73
2022/01/22 10:53:42;;;;;;;3.00;2.80;;;;;;;2.14;75.76;100205.84;5073807;28;20195;-76
2022/01/22 10:56:12;;;;;;;6.97;4.07;;;;;;;2.09;71.42;100158.72;5073887;28;20206;-74
2022/01/22 10:58:53;;;;;;;11.37;5.70;;;;;;;2.04;70.72;100137.13;5073355;28;20191;-73
2022/01/22 11:01:21;;;;;;;3.47;3.03;;;;;;;2.29;69.54;100177.59;5074884;28;20299;-75
2022/01/22 11:03:48;;;;;;;8.27;3.20;;;;;;;1.83;68.58;100146.31;5079525;28;20707;-78
2022/01/22 11:06:26;;;;;;;9.60;4.70;;;;;;;1.91;70.06;100170.56;5073137;28;20195;-77
2022/01/22 11:08:53;;;;;;;11.20;5.77;;;;;;;1.71;69.83;100164.44;5073382;28;20258;-75
2022/01/22 11:11:23;;;;;;;26.53;10.87;;;;;;;1.88;70.81;100155.09;5072831;28;20222;-77
2022/01/22 11:13:50;;;;;;;15.27;6.40;;;;;;;1.89;69.82;100164.53;5088261;28;20710;-75
2022/01/22 11:16:18;;;;;;;16.17;8.70;;;;;;;0.87;68.91;99969.41;5093988;28;20193;-76
2022/01/22 11:18:48;;;;;;;11.97;4.07;;;;;;;1.66;67.83;100101.13;5097090;28;20292;-78
2022/01/22 11:21:16;;;;;;;17.43;7.70;;;;;;;2.11;66.50;100128.09;5080032;28;20209;-79
2022/01/22 11:23:43;;;;;;;12.03;5.43;;;;;;;1.97;65.88;100089.06;5087605;28;20198;-75
2022/01/22 11:26:11;;;;;;;11.30;4.00;;;;;;;2.13;64.53;100081.34;5080131;28;20237;-77
2022/01/22 11:28:40;;;;;;;12.87;5.97;;;;;;;2.48;65.59;100096.69;5079320;28;20224;-71
2022/01/22 11:31:09;;;;;;;14.37;6.03;;;;;;;3.00;66.66;100145.16;5084847;28;20237;-78
2022/01/22 11:33:44;;;;;;;8.80;4.17;;;;;;;3.06;63.71;100148.03;5093044;28;20607;-80
2022/01/22 11:36:18;;;;;;;6.27;3.70;;;;;;;2.76;62.83;100156.84;5079832;28;20229;-78
2022/01/22 11:38:53;;;;;;;15.93;5.53;;;;;;;2.81;63.64;100147.69;5079123;28;20199;-80
2022/01/22 11:41:21;;;;;;;8.90;3.87;;;;;;;2.89;62.84;100147.22;5078547;28;20194;-78
2022/01/22 11:43:56;;;;;;;11.73;6.30;;;;;;;2.94;60.86;100134.66;5073330;28;20207;-79
2022/01/22 11:46:28;;;;;;;9.50;5.07;;;;;;;2.41;58.56;100065.63;5073827;28;20285;-77
2022/01/22 11:49:13;;;;;;;37.33;16.10;;;;;;;2.73;55.80;100137.09;5073235;28;20191;-78
2022/01/22 11:51:40;;;;;;;9.73;4.57;;;;;;;2.88;56.21;100142.06;5089399;28;20225;-77
2022/01/22 11:54:07;;;;;;;11.90;5.07;;;;;;;3.00;56.40;100137.47;5098127;28;20213;-80
2022/01/22 11:56:44;;;;;;;3.83;3.00;;;;;;;2.83;57.50;100135.81;5078082;28;20186;-79
2022/01/22 11:59:30;;;;;;;11.93;4.40;;;;;;;2.80;57.42;100081.94;5073220;28;20192;-79
2022/01/22 12:02:07;;;;;;;12.80;5.67;;;;;;;3.35;56.64;100134.81;5074378;28;20205;-76
2022/01/22 12:05:04;;;;;;;11.87;5.47;;;;;;;3.04;55.10;100079.59;5074748;28;20199;-80
2022/01/22 12:07:35;;;;;;;20.17;8.90;;;;;;;3.25;56.49;100127.53;5077246;28;20595;-82
2022/01/22 12:10:38;;;;;;;11.30;5.67;;;;;;;3.44;53.73;100132.66;5074749;28;20203;-78
2022/01/22 12:16:12;;;;;;;11.87;4.73;;;;;;;3.34;53.78;100125.38;5090522;28;20190;-83
2022/01/22 12:18:46;;;;;;;7.37;3.20;;;;;;;1.86;52.02;99891.72;5075394;28;20241;-82
2022/01/22 12:21:39;;;;;;;10.23;4.57;;;;;;;3.25;52.05;100127.53;5074688;28;20209;-70
2022/01/22 12:24:10;;;;;;;7.93;3.63;;;;;;;2.69;51.25;100045.63;5073341;28;20203;-78
2022/01/22 12:26:43;;;;;;;2.80;2.60;;;;;;;3.03;50.92;100103.47;5080774;28;20305;-77
2022/01/22 12:29:44;;;;;;;4.13;3.27;;;;;;;3.00;51.00;100089.69;5078945;28;20277;-76
2022/01/22 12:32:19;;;;;;;8.13;4.23;;;;;;;3.30;51.05;100125.19;5070983;28;20660;-80
2022/01/22 12:35:05;;;;;;;2.80;2.53;;;;;;;3.29;51.53;100134.53;5073591;28;20251;-81
2022/01/22 12:37:37;;;;;;;4.53;3.60;;;;;;;2.58;51.36;100061.28;5072381;28;20195;-79